createdAt,value
2018-07-15T00:02:21.769Z,99.90
2018-07-15T00:04:50.113Z,99.90
2018-07-15T00:07:18.497Z,99.90
2018-07-15T00:09:46.862Z,99.90
2018-07-15T00:12:15.234Z,99.90
2018-07-15T00:14:43.614Z,99.90
2018-07-15T00:17:11.928Z,99.90
2018-07-15T00:19:40.334Z,99.90
2018-07-15T00:22:08.689Z,99.90
2018-07-15T00:24:37.043Z,99.90
2018-07-15T00:27:05.622Z,99.90
2018-07-15T00:29:34.015Z,99.90
2018-07-15T00:32:02.539Z,99.90
2018-07-15T00:34:30.861Z,99.90
2018-07-15T00:36:59.176Z,99.90
2018-07-15T00:39:27.476Z,99.90
2018-07-15T00:41:55.895Z,99.90
2018-07-15T00:44:24.351Z,99.90
2018-07-15T00:46:52.764Z,99.90
2018-07-15T00:49:21.173Z,99.90
2018-07-15T00:51:49.579Z,99.90
2018-07-15T00:56:46.293Z,99.90
2018-07-15T00:59:14.643Z,99.90
2018-07-15T01:01:43.039Z,99.90
2018-07-15T01:04:11.366Z,99.90
2018-07-15T01:06:39.787Z,99.90
2018-07-15T01:09:09.311Z,99.90
2018-07-15T01:11:37.677Z,99.90
2018-07-15T01:14:06.415Z,99.90
2018-07-15T01:16:35.877Z,99.90
2018-07-15T01:19:04.317Z,99.90
2018-07-15T01:21:32.686Z,99.90
2018-07-15T01:24:01.067Z,99.90
2018-07-15T01:26:29.715Z,99.90
2018-07-15T01:28:58.098Z,99.90
2018-07-15T01:31:27.372Z,99.90
2018-07-15T01:33:55.816Z,99.90
2018-07-15T01:36:24.175Z,99.90
2018-07-15T01:38:52.507Z,99.90
2018-07-15T01:41:20.828Z,99.90
2018-07-15T01:43:49.193Z,99.90
2018-07-15T01:46:17.564Z,99.90
2018-07-15T01:48:45.932Z,99.90
2018-07-15T01:51:14.320Z,99.90
2018-07-15T01:53:42.707Z,99.90
2018-07-15T01:56:11.153Z,99.90
2018-07-15T01:58:39.598Z,99.90
2018-07-15T02:01:08.105Z,99.90
2018-07-15T02:06:04.734Z,99.90
2018-07-15T02:08:33.232Z,99.90
2018-07-15T02:11:01.633Z,99.90
2018-07-15T02:13:30.068Z,99.90
2018-07-15T02:15:58.408Z,99.90
2018-07-15T02:18:26.803Z,99.90
2018-07-15T02:20:55.241Z,99.90
2018-07-15T02:23:23.650Z,99.90
2018-07-15T02:25:52.005Z,99.90
2018-07-15T02:28:20.375Z,99.90
2018-07-15T02:30:48.723Z,99.90
2018-07-15T02:33:17.172Z,99.90
2018-07-15T02:35:45.833Z,99.90
2018-07-15T02:38:14.215Z,99.90
2018-07-15T02:40:42.652Z,99.90
2018-07-15T02:43:11.113Z,99.90
2018-07-15T02:45:39.485Z,99.90
2018-07-15T02:48:07.845Z,99.90
2018-07-15T02:50:36.212Z,99.90
2018-07-15T02:53:04.669Z,99.90
2018-07-15T02:55:33.028Z,99.90
2018-07-15T02:58:01.557Z,99.90
2018-07-15T03:00:29.901Z,99.90
2018-07-15T03:05:27.172Z,99.90
2018-07-15T03:07:55.550Z,99.90
2018-07-15T03:10:24.131Z,99.90
2018-07-15T03:12:52.430Z,99.90
2018-07-15T03:15:20.751Z,99.90
2018-07-15T03:17:49.118Z,99.90
2018-07-15T03:20:17.448Z,99.90
2018-07-15T03:22:45.832Z,99.90
2018-07-15T03:25:14.201Z,99.90
2018-07-15T03:27:42.537Z,99.90
2018-07-15T03:30:10.934Z,99.90
2018-07-15T03:32:39.339Z,99.90
2018-07-15T03:35:07.743Z,99.90
2018-07-15T03:37:36.109Z,99.90
2018-07-15T03:40:04.520Z,99.90
2018-07-15T03:42:32.936Z,99.90
2018-07-15T03:45:01.282Z,99.90
2018-07-15T03:47:29.698Z,99.90
2018-07-15T03:49:58.059Z,99.90
2018-07-15T03:52:26.512Z,99.90
2018-07-15T03:54:54.869Z,99.90
2018-07-15T03:57:23.226Z,99.90
2018-07-15T03:59:51.594Z,99.90
2018-07-15T04:02:19.980Z,99.90
2018-07-15T04:04:48.444Z,99.90
2018-07-15T04:07:16.917Z,99.90
2018-07-15T04:09:45.481Z,99.90
2018-07-15T04:12:13.888Z,99.90
2018-07-15T04:14:42.279Z,99.90
2018-07-15T04:17:10.679Z,99.90
2018-07-15T04:19:39.134Z,99.90
2018-07-15T04:22:07.546Z,99.90
2018-07-15T04:24:35.999Z,99.90
2018-07-15T04:27:04.367Z,99.90
2018-07-15T04:29:32.873Z,99.90
2018-07-15T04:32:01.504Z,99.90
2018-07-15T04:34:29.927Z,99.90
2018-07-15T04:36:58.317Z,99.90
2018-07-15T04:39:26.685Z,99.90
2018-07-15T04:41:55.048Z,99.90
2018-07-15T04:44:23.427Z,99.90
2018-07-15T04:46:51.787Z,99.90
2018-07-15T04:49:20.179Z,99.90
2018-07-15T04:51:48.559Z,99.90
2018-07-15T04:54:16.940Z,99.90
2018-07-15T04:56:45.439Z,99.90
2018-07-15T04:59:13.849Z,99.90
2018-07-15T05:01:42.762Z,99.90
2018-07-15T05:04:12.736Z,99.90
2018-07-15T05:06:41.110Z,99.90
2018-07-15T05:09:09.509Z,99.90
2018-07-15T05:11:38.552Z,99.90
2018-07-15T05:14:07.793Z,99.90
2018-07-15T05:16:36.467Z,99.90
2018-07-15T05:19:04.812Z,99.90
2018-07-15T05:21:33.180Z,99.90
2018-07-15T05:24:01.695Z,99.90
2018-07-15T05:26:30.041Z,99.90
2018-07-15T05:28:58.749Z,99.90
2018-07-15T05:31:29.295Z,99.90
2018-07-15T05:34:05.561Z,99.90
2018-07-15T05:36:35.100Z,99.90
2018-07-15T05:39:05.014Z,99.90
2018-07-15T05:41:33.806Z,99.90
2018-07-15T05:44:02.561Z,99.90
2018-07-15T05:46:31.312Z,99.90
2018-07-15T05:49:00.382Z,99.90
2018-07-15T05:51:30.189Z,99.90
2018-07-15T05:56:28.588Z,99.90
2018-07-15T05:58:58.196Z,99.90
2018-07-15T06:01:27.520Z,99.90
2018-07-15T06:04:23.450Z,99.90
2018-07-15T06:06:52.541Z,99.90
2018-07-15T06:09:27.679Z,99.90
2018-07-15T06:11:57.117Z,99.90
2018-07-15T06:14:26.560Z,99.90
2018-07-15T06:16:55.916Z,99.90
2018-07-15T06:19:24.810Z,99.90
2018-07-15T06:21:53.896Z,99.90
2018-07-15T06:24:22.943Z,99.90
2018-07-15T06:26:52.143Z,99.90
2018-07-15T06:29:21.239Z,99.90
2018-07-15T06:31:50.352Z,99.90
2018-07-15T06:34:22.575Z,99.90
2018-07-15T06:37:02.619Z,99.90
2018-07-15T06:39:31.595Z,99.90
2018-07-15T06:42:00.272Z,99.90
2018-07-15T06:44:33.498Z,99.90
2018-07-15T06:47:02.318Z,99.90
2018-07-15T06:49:32.744Z,99.90
2018-07-15T06:52:01.947Z,99.90
2018-07-15T06:56:59.312Z,99.90
2018-07-15T06:59:29.325Z,99.90
2018-07-15T07:01:58.321Z,99.90
2018-07-15T07:04:27.308Z,99.90
2018-07-15T07:06:56.433Z,99.90
2018-07-15T07:09:25.712Z,99.90
2018-07-15T07:11:54.803Z,99.90
2018-07-15T07:14:24.228Z,99.90
2018-07-15T07:19:52.798Z,99.90
2018-07-15T07:22:21.844Z,99.90
2018-07-15T07:24:51.418Z,99.90
2018-07-15T07:27:20.397Z,99.90
2018-07-15T07:29:49.459Z,99.90
2018-07-15T07:32:18.947Z,99.90
2018-07-15T07:40:35.328Z,99.90
2018-07-15T07:43:07.799Z,99.90
2018-07-15T07:45:37.232Z,99.90
2018-07-15T07:48:06.538Z,99.90
2018-07-15T07:50:36.211Z,99.90
2018-07-15T07:53:10.652Z,99.90
2018-07-15T07:55:39.727Z,99.90
2018-07-15T07:58:16.193Z,99.90
2018-07-15T08:00:52.645Z,99.90
2018-07-15T08:03:25.380Z,99.90
2018-07-15T08:05:55.623Z,99.90
2018-07-15T08:08:32.951Z,99.90
2018-07-15T08:11:45.757Z,99.90
2018-07-15T08:14:20.858Z,99.90
2018-07-15T08:19:17.751Z,99.90
2018-07-15T08:21:46.220Z,99.90
2018-07-15T08:24:14.679Z,99.90
2018-07-15T08:29:11.594Z,99.90
2018-07-15T08:31:40.221Z,99.90
2018-07-15T08:34:08.688Z,99.90
2018-07-15T08:36:37.036Z,99.90
2018-07-15T08:39:07.275Z,99.90
2018-07-15T08:41:35.947Z,99.90
2018-07-15T08:44:05.345Z,99.90
2018-07-15T08:46:34.036Z,99.90
2018-07-15T08:49:02.516Z,99.90
2018-07-15T08:51:31.643Z,99.90
2018-07-15T08:54:00.242Z,99.90
2018-07-15T08:56:28.880Z,99.90
2018-07-15T08:58:57.524Z,99.90
2018-07-15T09:01:26.099Z,99.90
2018-07-15T09:03:54.632Z,99.90
2018-07-15T09:06:23.184Z,99.90
2018-07-15T09:08:54.775Z,99.90
2018-07-15T09:11:29.331Z,99.90
2018-07-15T09:13:57.970Z,96.80
2018-07-15T09:16:26.416Z,97.70
2018-07-15T09:21:48.809Z,99.90
2018-07-15T09:24:17.651Z,99.90
2018-07-15T09:26:46.475Z,96.90
2018-07-15T09:29:15.160Z,96.90
2018-07-15T09:31:44.687Z,96.30
2018-07-15T09:34:13.298Z,96.70
2018-07-15T09:36:41.974Z,96.50
2018-07-15T09:39:14.482Z,95.40
2018-07-15T09:41:44.357Z,94.30
2018-07-15T09:44:14.195Z,95.00
2018-07-15T09:46:43.104Z,93.60
2018-07-15T09:51:40.579Z,94.20
2018-07-15T09:54:12.842Z,94.20
2018-07-15T09:56:41.434Z,92.60
2018-07-15T09:59:09.962Z,89.60
2018-07-15T10:04:22.412Z,92.40
2018-07-15T10:06:50.842Z,89.40
2018-07-15T10:09:19.319Z,91.30
2018-07-15T10:11:47.733Z,90.60
2018-07-15T10:14:16.336Z,82.10
2018-07-15T10:16:44.833Z,83.10
2018-07-15T10:19:13.493Z,82.60
2018-07-15T10:21:41.950Z,83.80
2018-07-15T10:26:43.409Z,84.40
2018-07-15T10:29:12.510Z,80.50
2018-07-15T10:31:41.709Z,81.70
2018-07-15T10:34:10.638Z,85.40
2018-07-15T10:36:40.321Z,85.10
2018-07-15T10:41:49.845Z,79.50
2018-07-15T10:46:46.654Z,81.80
2018-07-15T10:49:17.590Z,80.00
2018-07-15T10:51:47.378Z,76.50
2018-07-15T10:54:16.411Z,74.90
2018-07-15T10:56:45.140Z,70.80
2018-07-15T10:59:13.950Z,68.10
2018-07-15T11:01:42.840Z,71.50
2018-07-15T11:04:11.969Z,75.40
2018-07-15T11:06:40.856Z,75.40
2018-07-15T11:09:09.924Z,74.20
2018-07-15T11:11:38.917Z,73.80
2018-07-15T11:14:07.454Z,73.70
2018-07-15T11:16:36.317Z,72.30
2018-07-15T11:19:05.017Z,72.10
2018-07-15T11:21:33.692Z,72.10
2018-07-15T11:24:02.553Z,71.20
2018-07-15T11:26:31.030Z,74.80
2018-07-15T11:28:59.769Z,72.00
2018-07-15T11:31:28.389Z,73.10
2018-07-15T11:33:57.054Z,70.10
2018-07-15T11:36:25.730Z,67.80
2018-07-15T11:38:54.343Z,66.40
2018-07-15T11:41:22.816Z,67.40
2018-07-15T11:43:51.444Z,64.70
2018-07-15T11:46:21.097Z,67.30
2018-07-15T11:48:49.662Z,65.70
2018-07-15T11:51:18.469Z,67.90
2018-07-15T11:53:47.877Z,69.80
2018-07-15T11:56:28.367Z,68.50
2018-07-15T11:59:05.360Z,68.40
2018-07-15T12:01:33.895Z,68.70
2018-07-15T12:04:02.546Z,65.90
2018-07-15T12:06:34.648Z,64.10
2018-07-15T12:09:03.685Z,65.10
2018-07-15T12:11:32.230Z,66.20
2018-07-15T12:14:01.088Z,66.00
2018-07-15T12:16:29.607Z,66.20
2018-07-15T12:18:59.650Z,65.70
2018-07-15T12:26:25.716Z,65.00
2018-07-15T12:28:54.624Z,65.60
2018-07-15T12:32:31.171Z,67.50
2018-07-15T12:35:00.954Z,65.30
2018-07-15T12:37:29.770Z,62.80
2018-07-15T12:39:58.357Z,61.70
2018-07-15T12:42:27.088Z,62.10
2018-07-15T12:44:55.886Z,62.10
2018-07-15T12:47:24.512Z,61.40
2018-07-15T12:49:53.188Z,61.10
2018-07-15T12:52:22.012Z,60.00
2018-07-15T12:54:50.840Z,60.50
2018-07-15T12:57:21.177Z,60.00
2018-07-15T12:59:50.046Z,60.40
2018-07-15T13:02:18.655Z,58.50
2018-07-15T13:04:47.336Z,57.20
2018-07-15T13:07:16.960Z,57.70
2018-07-15T13:09:45.517Z,57.20
2018-07-15T13:12:19.756Z,58.30
2018-07-15T13:17:18.812Z,61.20
2018-07-15T13:19:47.531Z,60.20
2018-07-15T13:22:16.172Z,60.70
2018-07-15T13:24:44.768Z,60.30
2018-07-15T13:27:14.202Z,61.20
2018-07-15T13:29:42.827Z,62.20
2018-07-15T13:32:11.460Z,59.80
2018-07-15T13:34:40.258Z,59.60
2018-07-15T13:37:09.902Z,59.00
2018-07-15T13:39:38.524Z,58.90
2018-07-15T13:42:08.485Z,58.60
2018-07-15T13:44:36.810Z,58.20
2018-07-15T13:47:05.300Z,59.20
2018-07-15T13:49:34.029Z,59.10
2018-07-15T13:52:02.702Z,61.10
2018-07-15T13:54:31.681Z,60.40
2018-07-15T13:57:00.213Z,58.70
2018-07-15T13:59:29.016Z,58.60
2018-07-15T14:01:57.580Z,59.40
2018-07-15T14:04:30.127Z,59.50
2018-07-15T14:07:00.246Z,59.30
2018-07-15T14:09:28.905Z,59.00
2018-07-15T14:11:57.413Z,60.30
2018-07-15T14:14:26.815Z,58.80
2018-07-15T14:16:55.490Z,59.50
2018-07-15T14:19:24.075Z,59.70
2018-07-15T14:21:52.730Z,59.40
2018-07-15T14:24:21.218Z,59.10
2018-07-15T14:29:18.350Z,58.30
2018-07-15T14:31:47.302Z,58.80
2018-07-15T14:34:15.783Z,60.20
2018-07-15T14:36:44.703Z,58.50
2018-07-15T14:39:13.423Z,59.40
2018-07-15T14:41:42.105Z,58.10
2018-07-15T14:44:11.438Z,58.30
2018-07-15T14:46:40.015Z,58.70
2018-07-15T14:51:37.220Z,57.20
2018-07-15T14:54:06.102Z,57.90
2018-07-15T14:56:34.885Z,57.60
2018-07-15T14:59:08.612Z,57.40
2018-07-15T15:01:37.319Z,57.70
2018-07-15T15:04:05.754Z,57.70
2018-07-15T15:06:34.284Z,57.00
2018-07-15T15:09:02.714Z,57.60
2018-07-15T15:11:31.336Z,57.40
2018-07-15T15:13:59.834Z,58.10
2018-07-15T15:16:28.649Z,57.60
2018-07-15T15:18:57.650Z,57.50
2018-07-15T15:21:26.329Z,57.70
2018-07-15T15:23:54.992Z,58.20
2018-07-15T15:26:23.853Z,58.40
2018-07-15T15:28:57.235Z,57.50
2018-07-15T15:31:26.187Z,57.80
2018-07-15T15:36:23.580Z,58.60
2018-07-15T15:38:53.437Z,59.60
2018-07-15T15:41:28.017Z,58.10
2018-07-15T15:46:25.440Z,58.90
2018-07-15T15:48:54.413Z,58.10
2018-07-15T15:51:33.254Z,58.60
2018-07-15T15:54:03.055Z,58.70
2018-07-15T15:56:31.882Z,60.20
2018-07-15T15:59:00.541Z,59.40
2018-07-15T16:01:29.371Z,58.70
2018-07-15T16:03:58.716Z,59.50
2018-07-15T16:06:27.237Z,59.70
2018-07-15T16:08:55.598Z,58.30
2018-07-15T16:11:24.458Z,58.70
2018-07-15T16:13:53.331Z,58.10
2018-07-15T16:16:21.948Z,57.20
2018-07-15T16:18:50.484Z,57.40
2018-07-15T16:21:19.078Z,57.40
2018-07-15T16:26:40.931Z,57.70
2018-07-15T16:29:09.347Z,57.80
2018-07-15T16:31:38.557Z,58.60
2018-07-15T16:34:07.202Z,58.30
2018-07-15T16:36:36.069Z,60.20
2018-07-15T16:39:05.536Z,58.90
2018-07-15T16:41:33.911Z,58.30
2018-07-15T16:44:02.495Z,57.50
2018-07-15T16:46:31.361Z,56.80
2018-07-15T16:48:59.725Z,56.60
2018-07-15T16:51:28.618Z,57.10
2018-07-15T16:54:00.922Z,58.10
2018-07-15T16:56:34.216Z,58.00
2018-07-15T16:59:04.464Z,58.00
2018-07-15T17:01:33.066Z,57.30
2018-07-15T17:04:01.386Z,57.40
2018-07-15T17:06:29.699Z,57.60
2018-07-15T17:08:58.230Z,57.60
2018-07-15T17:11:26.567Z,57.90
2018-07-15T17:13:54.907Z,58.30
2018-07-15T17:16:23.280Z,58.50
2018-07-15T17:18:51.564Z,58.90
2018-07-15T17:21:19.886Z,58.30
2018-07-15T17:23:48.253Z,58.70
2018-07-15T17:26:16.720Z,59.10
2018-07-15T17:28:45.216Z,59.20
2018-07-15T17:31:13.602Z,59.80
2018-07-15T17:33:42.193Z,59.20
2018-07-15T17:36:10.699Z,59.50
2018-07-15T17:38:39.007Z,60.00
2018-07-15T17:41:07.526Z,59.60
2018-07-15T17:43:36.737Z,59.50
2018-07-15T17:46:05.318Z,59.70
2018-07-15T17:48:33.786Z,60.20
2018-07-15T17:51:02.092Z,60.70
2018-07-15T17:53:30.526Z,61.00
2018-07-15T17:55:58.999Z,61.10
2018-07-15T17:58:27.637Z,61.40
2018-07-15T18:00:56.192Z,61.30
2018-07-15T18:03:24.527Z,61.30
2018-07-15T18:05:53.005Z,62.20
2018-07-15T18:08:21.506Z,61.50
2018-07-15T18:10:49.913Z,61.40
2018-07-15T18:13:18.431Z,61.70
2018-07-15T18:18:15.041Z,61.80
2018-07-15T18:20:43.466Z,61.90
2018-07-15T18:23:11.886Z,62.30
2018-07-15T18:25:44.292Z,61.90
2018-07-15T18:28:15.850Z,62.20
2018-07-15T18:30:44.268Z,62.20
2018-07-15T18:33:12.699Z,62.00
2018-07-15T18:35:41.180Z,62.40
2018-07-15T18:38:09.867Z,62.30
2018-07-15T18:40:38.190Z,62.90
2018-07-15T18:43:06.779Z,63.40
2018-07-15T18:45:35.127Z,63.30
2018-07-15T18:48:03.504Z,63.90
2018-07-15T18:50:31.872Z,64.00
2018-07-15T18:53:00.306Z,64.20
2018-07-15T18:55:29.124Z,64.40
2018-07-15T18:57:57.557Z,65.20
2018-07-15T19:00:26.102Z,65.50
2018-07-15T19:02:54.741Z,65.50
2018-07-15T19:05:23.053Z,65.70
2018-07-15T19:07:51.387Z,66.30
2018-07-15T19:10:19.816Z,66.40
2018-07-15T19:12:48.127Z,66.30
2018-07-15T19:15:16.570Z,66.70
2018-07-15T19:17:44.952Z,67.20
2018-07-15T19:20:13.256Z,67.30
2018-07-15T19:25:09.762Z,67.80
2018-07-15T19:27:38.078Z,68.50
2018-07-15T19:32:34.634Z,70.00
2018-07-15T19:35:03.075Z,69.10
2018-07-15T19:37:31.528Z,69.50
2018-07-15T19:39:59.862Z,70.00
2018-07-15T19:42:28.335Z,69.80
2018-07-15T19:44:56.647Z,70.10
2018-07-15T19:47:24.947Z,70.70
2018-07-15T19:49:53.307Z,73.30
2018-07-15T19:52:21.659Z,76.00
2018-07-15T19:54:49.969Z,76.30
2018-07-15T19:57:18.293Z,76.60
2018-07-15T19:59:49.707Z,78.00
2018-07-15T20:02:18.012Z,79.40
2018-07-15T20:04:46.299Z,80.10
2018-07-15T20:07:14.625Z,80.10
2018-07-15T20:09:43.541Z,80.60
2018-07-15T20:12:11.863Z,80.30
2018-07-15T20:14:40.369Z,81.50
2018-07-15T20:19:36.720Z,82.50
2018-07-15T20:22:05.221Z,83.20
2018-07-15T20:24:33.544Z,83.90
2018-07-15T20:27:01.847Z,85.20
2018-07-15T20:29:30.184Z,83.90
2018-07-15T20:31:58.636Z,84.90
2018-07-15T20:34:26.993Z,84.40
2018-07-15T20:36:55.306Z,79.60
2018-07-15T20:39:23.674Z,80.40
2018-07-15T20:41:52.006Z,77.70
2018-07-15T20:44:20.349Z,82.90
2018-07-15T20:46:48.890Z,84.50
2018-07-15T20:49:17.202Z,86.20
2018-07-15T20:51:45.576Z,88.80
2018-07-15T20:54:13.913Z,89.90
2018-07-15T20:56:42.267Z,90.60
2018-07-15T20:59:10.563Z,91.10
2018-07-15T21:09:05.185Z,91.80
2018-07-15T21:11:33.525Z,91.50
2018-07-15T21:14:02.127Z,91.10
2018-07-15T21:16:30.403Z,92.70
2018-07-15T21:18:59.028Z,93.80
2018-07-15T21:21:27.403Z,94.20
2018-07-15T21:23:55.747Z,94.00
2018-07-15T21:26:24.065Z,92.90
2018-07-15T21:28:52.400Z,92.60
2018-07-15T21:31:20.786Z,93.00
2018-07-15T21:36:17.060Z,93.80
2018-07-15T21:38:45.372Z,94.20
2018-07-15T21:41:13.676Z,94.50
2018-07-15T21:43:41.997Z,95.40
2018-07-15T21:46:10.374Z,95.90
2018-07-15T21:48:38.707Z,96.40
2018-07-15T21:51:07.082Z,97.40
2018-07-15T21:53:35.418Z,98.00
2018-07-15T21:56:03.789Z,98.40
2018-07-15T21:58:32.254Z,99.30
2018-07-15T22:01:00.721Z,99.80
2018-07-15T22:03:29.029Z,99.90
2018-07-15T22:05:57.543Z,99.90
2018-07-15T22:08:37.205Z,99.90
2018-07-15T22:11:05.559Z,99.90
2018-07-15T22:13:33.856Z,99.90
2018-07-15T22:16:02.260Z,99.90
2018-07-15T22:18:37.215Z,99.90
2018-07-15T22:21:05.668Z,99.90
2018-07-15T22:23:34.225Z,99.90
2018-07-15T22:26:02.542Z,99.90
2018-07-15T22:28:30.859Z,99.90
2018-07-15T22:30:59.285Z,99.90
2018-07-15T22:34:00.009Z,99.90
2018-07-15T22:36:32.934Z,99.90
2018-07-15T22:39:01.344Z,99.90
2018-07-15T22:43:57.770Z,99.90
2018-07-15T22:46:26.127Z,99.90
2018-07-15T22:48:54.491Z,99.90
2018-07-15T22:53:51.020Z,99.90
2018-07-15T22:56:19.379Z,99.90
2018-07-15T23:01:15.834Z,99.90
2018-07-15T23:06:17.888Z,99.90
2018-07-15T23:08:46.231Z,99.90
2018-07-15T23:11:14.652Z,99.90
2018-07-15T23:13:43.063Z,99.90
2018-07-15T23:16:11.435Z,99.90
2018-07-15T23:18:39.802Z,99.90
2018-07-15T23:21:08.134Z,99.90
2018-07-15T23:23:36.508Z,99.90
2018-07-15T23:26:04.851Z,99.90
2018-07-15T23:31:01.284Z,99.90
2018-07-15T23:33:29.650Z,99.90
2018-07-15T23:38:26.184Z,99.90
2018-07-15T23:40:54.535Z,99.90
2018-07-15T23:43:22.855Z,99.90
2018-07-15T23:45:51.214Z,99.90
2018-07-15T23:48:19.598Z,99.90
2018-07-15T23:50:48.072Z,99.90
2018-07-15T23:53:16.432Z,99.90
2018-07-15T23:55:44.778Z,99.90
2018-07-15T23:58:13.139Z,99.90
